createdAt,value
2023-12-16T00:00:34.742Z,101213.28
2023-12-16T00:03:25.672Z,101217.75
2023-12-16T00:05:54.281Z,101222.03
2023-12-16T00:08:23.138Z,101210.56
2023-12-16T00:10:59.975Z,101222.03
2023-12-16T00:18:00.851Z,101219.41
2023-12-16T00:20:28.262Z,101205.28
2023-12-16T00:22:55.840Z,101212.47
2023-12-16T00:25:24.070Z,101223.03
2023-12-16T00:30:33.633Z,101243.50
2023-12-16T00:33:03.518Z,101246.25
2023-12-16T00:35:56.669Z,101235.72
2023-12-16T00:38:49.271Z,101234.88
2023-12-16T00:41:43.921Z,101223.50
2023-12-16T00:46:58.006Z,101217.97
2023-12-16T00:49:25.556Z,101217.97
2023-12-16T00:51:52.843Z,101223.97
2023-12-16T00:54:44.711Z,101224.69
2023-12-16T00:57:12.261Z,101216.78
2023-12-16T00:59:39.498Z,101228.72
2023-12-16T01:02:09.282Z,101230.41
2023-12-16T01:04:43.521Z,101237.25
2023-12-16T01:07:12.134Z,101240.84
2023-12-16T01:10:11.605Z,101220.59
2023-12-16T01:12:48.822Z,101231.13
2023-12-16T01:15:36.876Z,101223.13
2023-12-16T01:18:05.223Z,101223.94
2023-12-16T01:20:32.853Z,101219.41
2023-12-16T01:23:00.911Z,101216.78
2023-12-16T01:25:28.154Z,101218.44
2023-12-16T01:28:05.466Z,101230.66
2023-12-16T01:34:09.812Z,101239.41
2023-12-16T01:40:08.365Z,101216.03
2023-12-16T01:42:35.920Z,101223.13
2023-12-16T01:45:05.073Z,101225.84
2023-12-16T01:47:33.139Z,101210.88
2023-12-16T01:50:48.193Z,101216.78
2023-12-16T01:53:15.703Z,101222.03
2023-12-16T01:56:11.685Z,101218.56
2023-12-16T01:59:05.827Z,101225.63
2023-12-16T02:01:33.800Z,101222.75
2023-12-16T02:04:27.257Z,101225.38
2023-12-16T02:06:54.660Z,101230.66
2023-12-16T02:09:22.879Z,101233.06
2023-12-16T02:11:50.271Z,101234.72
2023-12-16T02:14:19.577Z,101240.97
2023-12-16T02:16:50.007Z,101243.59
2023-12-16T02:19:32.984Z,101240.97
2023-12-16T02:22:00.943Z,101252.31
2023-12-16T02:24:30.274Z,101260.38
2023-12-16T02:26:57.800Z,101263.72
2023-12-16T02:29:25.328Z,101252.47
2023-12-16T02:31:52.845Z,101262.78
2023-12-16T02:34:20.786Z,101259.28
2023-12-16T02:36:48.105Z,101249.69
2023-12-16T02:39:15.757Z,101258.44
2023-12-16T02:41:43.702Z,101259.28
2023-12-16T02:44:15.193Z,101253.41
2023-12-16T02:46:49.319Z,101257.03
2023-12-16T02:49:17.055Z,101267.34
2023-12-16T02:51:44.309Z,101261.22
2023-12-16T02:54:13.304Z,101262.06
2023-12-16T02:56:40.499Z,101261.78
2023-12-16T02:59:09.788Z,101261.78
2023-12-16T03:01:45.152Z,101254.84
2023-12-16T03:04:12.859Z,101249.59
2023-12-16T03:06:47.196Z,101244.31
2023-12-16T03:09:16.248Z,101250.44
2023-12-16T03:12:08.673Z,101262.06
2023-12-16T03:14:38.931Z,101258.44
2023-12-16T03:17:06.206Z,101253.16
2023-12-16T03:19:58.952Z,101266.50
2023-12-16T03:23:17.686Z,101278.13
2023-12-16T03:25:45.699Z,101273.78
2023-12-16T03:28:16.931Z,101281.69
2023-12-16T03:30:44.981Z,101278.34
2023-12-16T03:33:30.825Z,101283.00
2023-12-16T03:35:59.086Z,101291.28
2023-12-16T03:38:26.284Z,101294.78
2023-12-16T03:40:53.929Z,101298.47
2023-12-16T03:43:21.465Z,101297.16
2023-12-16T03:46:14.917Z,101299.78
2023-12-16T03:51:50.384Z,101297.63
2023-12-16T03:54:17.554Z,101299.31
2023-12-16T03:56:45.711Z,101301.25
2023-12-16T03:59:36.139Z,101294.91
2023-12-16T04:02:05.413Z,101299.31
2023-12-16T04:04:34.129Z,101294.91
2023-12-16T04:07:51.500Z,101292.13
2023-12-16T04:13:28.308Z,101302.69
2023-12-16T04:16:04.139Z,101308.78
2023-12-16T04:18:33.504Z,101301.84
2023-12-16T04:21:02.680Z,101295.47
2023-12-16T04:23:34.002Z,101287.47
2023-12-16T04:26:33.210Z,101283.84
2023-12-16T04:29:03.781Z,101285.53
2023-12-16T04:31:34.959Z,101285.31
2023-12-16T04:34:02.880Z,101281.69
2023-12-16T04:36:31.209Z,101283.50
2023-12-16T04:39:14.045Z,101299.22
2023-12-16T04:45:14.716Z,101304.25
2023-12-16T04:47:49.441Z,101310.34
2023-12-16T04:50:43.517Z,101305.91
2023-12-16T04:53:11.100Z,101301.59
2023-12-16T04:56:29.434Z,101311.31
2023-12-16T04:59:50.669Z,101315.59
2023-12-16T05:02:17.903Z,101315.50
2023-12-16T05:05:10.952Z,101310.94
2023-12-16T05:07:40.619Z,101316.22
2023-12-16T05:10:20.870Z,101316.94
2023-12-16T05:13:38.378Z,101309.84
2023-12-16T05:16:08.961Z,101307.22
2023-12-16T05:18:37.536Z,101310.94
2023-12-16T05:21:06.230Z,101315.25
2023-12-16T05:23:42.768Z,101325.78
2023-12-16T05:26:35.615Z,101332.88
2023-12-16T05:29:52.541Z,101337.06
2023-12-16T05:32:29.174Z,101336.34
2023-12-16T05:34:58.083Z,101338.03
2023-12-16T05:37:25.669Z,101342.34
2023-12-16T05:40:19.870Z,101344.84
2023-12-16T05:42:47.515Z,101343.06
2023-12-16T05:45:15.410Z,101334.31
2023-12-16T05:47:43.364Z,101339.59
2023-12-16T05:50:20.878Z,101350.97
2023-12-16T05:52:48.466Z,101357.91
2023-12-16T05:55:40.828Z,101355.41
2023-12-16T05:58:08.437Z,101363.19
2023-12-16T06:04:34.495Z,101372.66
2023-12-16T06:07:01.827Z,101383.09
2023-12-16T06:09:29.372Z,101396.28
2023-12-16T06:12:21.714Z,101381.63
2023-12-16T06:14:49.344Z,101376.63
2023-12-16T06:17:16.741Z,101382.00
2023-12-16T06:19:44.553Z,101388.13
2023-12-16T06:22:11.844Z,101390.63
2023-12-16T06:24:43.636Z,101396.75
2023-12-16T06:27:10.959Z,101398.44
2023-12-16T06:29:40.905Z,101400.09
2023-12-16T06:32:28.759Z,101403.47
2023-12-16T06:35:03.417Z,101401.44
2023-12-16T06:37:31.447Z,101417.16
2023-12-16T06:40:01.777Z,101413.66
2023-12-16T06:42:42.896Z,101414.50
2023-12-16T06:45:10.970Z,101409.94
2023-12-16T06:47:43.518Z,101416.88
2023-12-16T06:50:43.913Z,101410.66
2023-12-16T06:53:18.245Z,101406.34
2023-12-16T06:55:46.721Z,101396.53
2023-12-16T06:58:13.995Z,101401.69
2023-12-16T07:00:54.119Z,101402.63
2023-12-16T07:03:29.741Z,101398.91
2023-12-16T07:06:21.520Z,101400.38
2023-12-16T07:11:57.611Z,101411.50
2023-12-16T07:14:29.264Z,101409.56
2023-12-16T07:17:00.990Z,101418.22
2023-12-16T07:19:28.710Z,101426.84
2023-12-16T07:21:56.910Z,101423.13
2023-12-16T07:24:24.229Z,101418.56
2023-12-16T07:26:51.778Z,101419.53
2023-12-16T07:29:21.872Z,101423.63
2023-12-16T07:31:50.127Z,101422.53
2023-12-16T07:34:18.188Z,101423.97
2023-12-16T07:36:47.201Z,101422.16
2023-12-16T07:39:25.317Z,101421.19
2023-12-16T07:42:44.460Z,101429.84
2023-12-16T07:45:12.288Z,101432.22
2023-12-16T07:47:40.531Z,101434.88
2023-12-16T07:52:54.851Z,101430.19
2023-12-16T07:55:28.609Z,101431.75
2023-12-16T07:58:21.746Z,101428.25
2023-12-16T08:00:49.456Z,101441.09
2023-12-16T08:03:17.106Z,101432.22
2023-12-16T08:05:44.683Z,101428.59
2023-12-16T08:08:12.269Z,101432.69
2023-12-16T08:10:42.976Z,101430.06
2023-12-16T08:13:11.921Z,101435.91
2023-12-16T08:15:39.312Z,101433.88
2023-12-16T08:18:08.804Z,101432.09
2023-12-16T08:20:36.042Z,101431.00
2023-12-16T08:23:29.749Z,101432.66
2023-12-16T08:25:57.218Z,101448.25
2023-12-16T08:29:00.556Z,101448.03
2023-12-16T08:31:52.753Z,101448.59
2023-12-16T08:34:21.309Z,101449.19
2023-12-16T08:40:29.261Z,101442.47
2023-12-16T08:46:31.251Z,101442.94
2023-12-16T08:48:59.373Z,101449.63
2023-12-16T08:51:53.346Z,101449.38
2023-12-16T08:54:47.068Z,101452.72
2023-12-16T08:57:33.341Z,101453.34
2023-12-16T09:00:01.027Z,101450.56
2023-12-16T09:02:28.581Z,101446.72
2023-12-16T09:05:52.442Z,101453.41
2023-12-16T09:08:20.102Z,101460.97
2023-12-16T09:10:54.033Z,101453.75
2023-12-16T09:13:28.030Z,101449.31
2023-12-16T09:15:56.233Z,101447.13
2023-12-16T09:18:38.588Z,101446.03
2023-12-16T09:21:06.843Z,101451.91
2023-12-16T09:23:59.654Z,101448.19
2023-12-16T09:26:27.688Z,101439.16
2023-12-16T09:28:56.200Z,101440.56
2023-12-16T09:31:31.555Z,101443.78
2023-12-16T09:33:59.821Z,101447.00
2023-12-16T09:37:11.056Z,101452.75
2023-12-16T09:39:40.522Z,101459.44
2023-12-16T09:42:08.156Z,101464.50
2023-12-16T09:44:41.273Z,101476.47
2023-12-16T09:47:12.554Z,101482.22
2023-12-16T09:49:44.394Z,101476.69
2023-12-16T09:52:12.184Z,101483.13
2023-12-16T09:54:40.903Z,101475.94
2023-12-16T09:57:13.638Z,101472.28
2023-12-16T09:59:48.401Z,101474.69
2023-12-16T10:02:30.239Z,101467.47
2023-12-16T10:04:59.878Z,101467.31
2023-12-16T10:07:49.201Z,101470.69
2023-12-16T10:10:18.048Z,101478.50
2023-12-16T10:12:47.305Z,101472.94
2023-12-16T10:15:33.593Z,101469.06
2023-12-16T10:18:03.695Z,101465.72
2023-12-16T10:20:40.121Z,101462.50
2023-12-16T10:23:09.334Z,101462.50
2023-12-16T10:25:56.857Z,101462.97
2023-12-16T10:28:28.180Z,101462.72
2023-12-16T10:31:02.438Z,101476.38
2023-12-16T10:33:52.099Z,101467.94
2023-12-16T10:36:38.771Z,101471.84
2023-12-16T10:39:33.364Z,101465.31
2023-12-16T10:42:03.968Z,101453.88
2023-12-16T10:44:32.272Z,101444.00
2023-12-16T10:47:00.089Z,101450.00
2023-12-16T10:49:33.329Z,101449.47
2023-12-16T10:52:42.930Z,101444.88
2023-12-16T10:55:23.675Z,101443.91
2023-12-16T10:58:20.576Z,101450.34
2023-12-16T11:00:53.496Z,101444.78
2023-12-16T11:03:54.087Z,101432.94
2023-12-16T11:06:42.309Z,101438.50
2023-12-16T11:09:19.044Z,101420.81
2023-12-16T11:14:56.151Z,101408.44
2023-12-16T11:17:48.808Z,101405.78
2023-12-16T11:23:49.429Z,101410.50
2023-12-16T11:26:18.061Z,101406.63
2023-12-16T11:30:05.387Z,101394.06
2023-12-16T11:32:35.313Z,101399.09
2023-12-16T11:35:10.842Z,101390.47
2023-12-16T11:37:38.912Z,101400.75
2023-12-16T11:40:47.571Z,101398.53
2023-12-16T11:43:15.294Z,101394.66
2023-12-16T11:48:35.632Z,101392.69
2023-12-16T11:51:55.751Z,101383.91
2023-12-16T11:54:26.731Z,101382.63
2023-12-16T11:57:53.936Z,101374.28
2023-12-16T12:00:23.083Z,101367.03
2023-12-16T12:02:54.841Z,101373.72
2023-12-16T12:05:23.669Z,101362.81
2023-12-16T12:07:51.445Z,101351.94
2023-12-16T12:10:25.899Z,101357.50
2023-12-16T12:12:53.780Z,101360.31
2023-12-16T12:15:21.524Z,101365.31
2023-12-16T12:18:29.165Z,101363.91
2023-12-16T12:20:57.046Z,101361.13
2023-12-16T12:23:25.119Z,101361.81
2023-12-16T12:25:57.090Z,101359.03
2023-12-16T12:28:24.460Z,101354.56
2023-12-16T12:31:01.745Z,101353.28
2023-12-16T12:33:30.291Z,101348.81
2023-12-16T12:35:58.285Z,101353.28
2023-12-16T12:38:26.758Z,101346.00
2023-12-16T12:41:05.524Z,101337.94
2023-12-16T12:43:36.593Z,101335.13
2023-12-16T12:46:13.517Z,101331.22
2023-12-16T12:48:56.392Z,101328.16
2023-12-16T12:51:26.993Z,101327.31
2023-12-16T12:54:02.829Z,101323.13
2023-12-16T12:56:30.897Z,101329.84
2023-12-16T12:58:59.661Z,101329.31
2023-12-16T13:01:27.671Z,101338.25
2023-12-16T13:03:55.404Z,101326.94
2023-12-16T13:06:27.144Z,101338.50
2023-12-16T13:08:57.756Z,101334.91
2023-12-16T13:11:29.683Z,101337.53
2023-12-16T13:13:57.162Z,101338.50
2023-12-16T13:16:24.763Z,101334.22
2023-12-16T13:18:53.965Z,101346.63
2023-12-16T13:21:23.380Z,101336.00
2023-12-16T13:23:51.274Z,101338.94
2023-12-16T13:26:19.564Z,101335.44
2023-12-16T13:28:47.014Z,101332.81
2023-12-16T13:31:14.622Z,101323.59
2023-12-16T13:33:43.287Z,101321.22
2023-12-16T13:36:32.987Z,101319.53
2023-12-16T13:38:58.966Z,101321.50
2023-12-16T13:41:26.557Z,101324.16
2023-12-16T13:44:01.812Z,101335.03
2023-12-16T13:46:33.811Z,101334.34
2023-12-16T13:49:07.118Z,101338.97
2023-12-16T13:51:35.044Z,101331.97
2023-12-16T13:54:04.207Z,101334.78
2023-12-16T13:56:31.971Z,101329.63
2023-12-16T13:59:14.554Z,101333.25
2023-12-16T14:01:52.496Z,101332.41
2023-12-16T14:04:51.776Z,101330.59
2023-12-16T14:07:44.185Z,101327.25
2023-12-16T14:10:17.880Z,101333.41
2023-12-16T14:12:54.782Z,101331.56
2023-12-16T14:15:28.479Z,101323.75
2023-12-16T14:17:56.785Z,101318.47
2023-12-16T14:23:59.962Z,101339.94
2023-12-16T14:26:27.359Z,101333.81
2023-12-16T14:28:54.997Z,101335.50
2023-12-16T14:31:24.421Z,101333.81
2023-12-16T14:34:00.697Z,101326.16
2023-12-16T14:36:39.345Z,101326.16
2023-12-16T14:39:35.781Z,101324.31
2023-12-16T14:42:04.145Z,101325.44
2023-12-16T14:44:43.509Z,101328.09
2023-12-16T14:47:22.416Z,101325.75
2023-12-16T14:49:50.068Z,101324.06
2023-12-16T14:52:17.367Z,101330.19
2023-12-16T14:54:44.916Z,101329.34
2023-12-16T14:57:27.468Z,101324.06
2023-12-16T14:59:57.484Z,101324.06
2023-12-16T15:02:25.374Z,101319.75
2023-12-16T15:04:52.935Z,101329.22
2023-12-16T15:07:29.930Z,101331.88
2023-12-16T15:09:58.737Z,101324.22
2023-12-16T15:15:14.109Z,101316.09
2023-12-16T15:18:07.051Z,101327.41
2023-12-16T15:23:16.347Z,101318.47
2023-12-16T15:25:43.872Z,101327.41
2023-12-16T15:28:11.901Z,101325.44
2023-12-16T15:30:42.156Z,101327.41
2023-12-16T15:36:43.591Z,101325.59
2023-12-16T15:39:31.209Z,101324.06
2023-12-16T15:42:20.463Z,101325.88
2023-12-16T15:45:14.322Z,101329.63
2023-12-16T15:47:54.474Z,101324.31
2023-12-16T15:50:25.443Z,101326.97
2023-12-16T15:52:53.007Z,101327.81
2023-12-16T15:55:45.702Z,101327.97
2023-12-16T15:58:13.410Z,101315.56
2023-12-16T16:00:50.583Z,101312.06
2023-12-16T16:03:19.459Z,101314.72
2023-12-16T16:05:47.137Z,101313.72
2023-12-16T16:08:18.354Z,101315.69
2023-12-16T16:10:46.798Z,101310.38
2023-12-16T16:13:14.495Z,101313.19
2023-12-16T16:19:10.418Z,101316.81
2023-12-16T16:21:37.712Z,101321.25
2023-12-16T16:24:05.599Z,101321.25
2023-12-16T16:26:34.296Z,101322.09
2023-12-16T16:29:04.045Z,101317.66
2023-12-16T16:31:36.007Z,101311.38
2023-12-16T16:34:06.684Z,101317.66
2023-12-16T16:36:34.954Z,101322.09
2023-12-16T16:39:02.562Z,101314.31
2023-12-16T16:41:31.194Z,101310.13
2023-12-16T16:43:59.202Z,101312.63
2023-12-16T16:46:27.023Z,101311.25
2023-12-16T16:48:54.747Z,101310.56
2023-12-16T16:51:45.749Z,101312.34
2023-12-16T16:54:33.606Z,101308.88
2023-12-16T16:57:01.107Z,101315.28
2023-12-16T16:59:28.752Z,101306.50
2023-12-16T17:01:56.147Z,101307.47
2023-12-16T17:04:50.493Z,101310.41
2023-12-16T17:07:17.940Z,101308.72
2023-12-16T17:10:11.439Z,101311.53
2023-12-16T17:12:39.392Z,101311.69
2023-12-16T17:15:09.671Z,101316.25
2023-12-16T17:17:37.622Z,101305.66
2023-12-16T17:20:06.592Z,101312.63
2023-12-16T17:22:58.567Z,101317.66
2023-12-16T17:26:03.503Z,101311.53
2023-12-16T17:28:41.512Z,101310.56
2023-12-16T17:31:10.009Z,101308.72
2023-12-16T17:33:38.311Z,101307.06
2023-12-16T17:36:06.625Z,101307.75
2023-12-16T17:38:34.042Z,101310.41
2023-12-16T17:41:18.682Z,101314.75
2023-12-16T17:43:46.149Z,101309.56
2023-12-16T17:46:15.377Z,101312.09
2023-12-16T17:51:35.816Z,101320.72
2023-12-16T17:54:03.542Z,101325.03
2023-12-16T17:57:48.530Z,101318.78
2023-12-16T18:00:18.212Z,101319.75
2023-12-16T18:03:06.213Z,101320.44
2023-12-16T18:05:39.941Z,101313.47
2023-12-16T18:08:09.174Z,101324.06
2023-12-16T18:10:52.991Z,101318.78
2023-12-16T18:13:20.685Z,101317.09
2023-12-16T18:16:00.139Z,101330.22
2023-12-16T18:18:27.721Z,101322.38
2023-12-16T18:21:21.923Z,101324.06
2023-12-16T18:24:03.360Z,101339.69
2023-12-16T18:26:31.100Z,101329.09
2023-12-16T18:28:59.546Z,101332.72
2023-12-16T18:31:43.920Z,101339.81
2023-12-16T18:34:13.545Z,101320.72
2023-12-16T18:37:03.003Z,101326.03
2023-12-16T18:39:31.707Z,101332.28
2023-12-16T18:41:59.895Z,101332.97
2023-12-16T18:44:53.398Z,101327.84
2023-12-16T18:50:37.942Z,101341.94
2023-12-16T18:53:21.435Z,101338.28
2023-12-16T18:56:46.473Z,101332.97
2023-12-16T18:59:16.116Z,101332.03
2023-12-16T19:01:43.416Z,101329.38
2023-12-16T19:04:11.720Z,101325.72
2023-12-16T19:06:45.815Z,101319.63
2023-12-16T19:10:09.431Z,101321.56
2023-12-16T19:12:37.048Z,101328.38
2023-12-16T19:15:12.149Z,101325.72
2023-12-16T19:17:40.103Z,101329.38
2023-12-16T19:21:16.562Z,101336.31
2023-12-16T19:23:43.975Z,101330.22
2023-12-16T19:26:36.383Z,101334.50
2023-12-16T19:29:03.806Z,101324.91
2023-12-16T19:31:31.331Z,101324.91
2023-12-16T19:33:58.882Z,101325.72
2023-12-16T19:36:26.814Z,101318.78
2023-12-16T19:38:54.966Z,101319.47
2023-12-16T19:41:23.002Z,101323.81
2023-12-16T19:44:16.826Z,101323.81
2023-12-16T19:46:45.052Z,101328.25
2023-12-16T19:49:13.858Z,101315.84
2023-12-16T19:51:48.321Z,101322.97
2023-12-16T19:54:43.570Z,101318.50
2023-12-16T19:57:12.644Z,101323.81
2023-12-16T19:59:49.159Z,101323.81
2023-12-16T20:02:21.512Z,101327.25
2023-12-16T20:12:51.207Z,101326.56
2023-12-16T20:15:18.874Z,101318.50
2023-12-16T20:17:54.657Z,101325.44
2023-12-16T20:20:31.248Z,101326.44
2023-12-16T20:23:29.851Z,101320.16
2023-12-16T20:25:57.461Z,101314.84
2023-12-16T20:28:51.400Z,101306.91
2023-12-16T20:31:49.070Z,101305.09
2023-12-16T20:34:24.507Z,101303.28
2023-12-16T20:37:40.370Z,101297.31
2023-12-16T20:40:27.841Z,101290.88
2023-12-16T20:43:20.719Z,101287.66
2023-12-16T20:46:13.640Z,101287.66
2023-12-16T20:48:43.244Z,101283.63
2023-12-16T20:51:12.822Z,101277.66
2023-12-16T20:53:43.124Z,101282.94
2023-12-16T20:56:14.025Z,101286.16
2023-12-16T20:58:45.056Z,101279.03
2023-12-16T21:01:12.692Z,101276.66
2023-12-16T21:03:40.320Z,101270.78
2023-12-16T21:06:08.944Z,101263.84
2023-12-16T21:08:40.131Z,101262.47
2023-12-16T21:11:09.416Z,101251.31
2023-12-16T21:16:18.444Z,101249.91
2023-12-16T21:21:57.131Z,101242.38
2023-12-16T21:24:25.569Z,101237.22
2023-12-16T21:26:53.155Z,101237.06
2023-12-16T21:29:20.629Z,101233.72
2023-12-16T21:31:49.770Z,101226.47
2023-12-16T21:34:17.377Z,101217.84
2023-12-16T21:36:44.965Z,101224.56
2023-12-16T21:39:12.220Z,101224.56
2023-12-16T21:41:40.074Z,101224.81
2023-12-16T21:44:14.176Z,101228.44
2023-12-16T21:50:07.956Z,101233.19
2023-12-16T21:53:31.149Z,101227.06
2023-12-16T21:56:05.578Z,101225.09
2023-12-16T21:59:29.096Z,101222.44
2023-12-16T22:01:58.034Z,101213.13
2023-12-16T22:04:33.485Z,101216.75
2023-12-16T22:07:05.547Z,101209.47
2023-12-16T22:10:03.132Z,101212.81
2023-12-16T22:16:32.301Z,101220.38
2023-12-16T22:19:34.116Z,101234.56
2023-12-16T22:22:08.902Z,101231.25
2023-12-16T22:24:37.436Z,101213.66
2023-12-16T22:27:57.765Z,101199.75
2023-12-16T22:30:25.364Z,101201.28
2023-12-16T22:32:53.580Z,101190.84
2023-12-16T22:35:24.827Z,101189.16
2023-12-16T22:37:52.768Z,101180.25
2023-12-16T22:40:50.564Z,101178.56
2023-12-16T22:43:34.358Z,101193.47
2023-12-16T22:47:01.666Z,101204.06
2023-12-16T22:49:31.153Z,101191.09
2023-12-16T22:51:59.107Z,101191.09
2023-12-16T22:54:26.777Z,101196.25
2023-12-16T22:57:01.838Z,101188.19
2023-12-16T22:59:29.767Z,101201.69
2023-12-16T23:01:57.492Z,101203.66
2023-12-16T23:04:24.842Z,101211.59
2023-12-16T23:06:52.315Z,101223.72
2023-12-16T23:09:19.802Z,101218.53
2023-12-16T23:12:16.340Z,101224.53
2023-12-16T23:14:43.652Z,101227.06
2023-12-16T23:17:37.709Z,101229.81
2023-12-16T23:20:07.071Z,101229.81
2023-12-16T23:22:41.943Z,101229.81
2023-12-16T23:25:10.623Z,101226.47
2023-12-16T23:27:40.564Z,101220.34
2023-12-16T23:33:17.061Z,101205.03
2023-12-16T23:36:10.422Z,101199.16
2023-12-16T23:39:20.080Z,101189.56
2023-12-16T23:41:50.397Z,101204.47
2023-12-16T23:45:01.697Z,101202.81
2023-12-16T23:47:29.456Z,101204.47
2023-12-16T23:49:56.792Z,101208.09
2023-12-16T23:52:50.745Z,101209.34
2023-12-16T23:55:43.017Z,101210.31
2023-12-16T23:58:45.094Z,101208.63
